sensor_id;sensor_type;location;lat;lon;timestamp;P1;durP1;ratioP1;P2;durP2;ratioP2
12554;SDS011;6343;50.868;4.700;2023-02-27T00:00:19;4.47;;;2.10;;
12554;SDS011;6343;50.868;4.700;2023-02-27T00:02:46;5.00;;;1.73;;
12554;SDS011;6343;50.868;4.700;2023-02-27T00:05:12;4.27;;;1.80;;
12554;SDS011;6343;50.868;4.700;2023-02-27T00:07:39;4.90;;;2.30;;
12554;SDS011;6343;50.868;4.700;2023-02-27T00:10:05;5.50;;;1.63;;
12554;SDS011;6343;50.868;4.700;2023-02-27T00:12:32;4.03;;;1.63;;
12554;SDS011;6343;50.868;4.700;2023-02-27T00:15:09;6.40;;;2.07;;
12554;SDS011;6343;50.868;4.700;2023-02-27T00:17:36;3.17;;;1.83;;
12554;SDS011;6343;50.868;4.700;2023-02-27T00:20:03;5.27;;;1.50;;
12554;SDS011;6343;50.868;4.700;2023-02-27T00:22:29;8.13;;;1.83;;
12554;SDS011;6343;50.868;4.700;2023-02-27T00:24:55;3.10;;;1.70;;
12554;SDS011;6343;50.868;4.700;2023-02-27T00:27:21;1.97;;;1.40;;
12554;SDS011;6343;50.868;4.700;2023-02-27T00:29:47;2.73;;;1.50;;
12554;SDS011;6343;50.868;4.700;2023-02-27T00:32:13;5.73;;;1.60;;
12554;SDS011;6343;50.868;4.700;2023-02-27T00:34:40;6.33;;;1.73;;
12554;SDS011;6343;50.868;4.700;2023-02-27T00:37:06;5.40;;;1.50;;
12554;SDS011;6343;50.868;4.700;2023-02-27T00:39:32;5.00;;;1.77;;
12554;SDS011;6343;50.868;4.700;2023-02-27T00:41:58;2.63;;;1.60;;
12554;SDS011;6343;50.868;4.700;2023-02-27T00:44:24;3.83;;;1.70;;
12554;SDS011;6343;50.868;4.700;2023-02-27T00:46:50;2.63;;;1.43;;
12554;SDS011;6343;50.868;4.700;2023-02-27T00:49:17;4.93;;;1.80;;
12554;SDS011;6343;50.868;4.700;2023-02-27T00:51:43;4.97;;;1.50;;
12554;SDS011;6343;50.868;4.700;2023-02-27T00:54:10;4.57;;;1.33;;
12554;SDS011;6343;50.868;4.700;2023-02-27T00:56:36;5.10;;;1.47;;
12554;SDS011;6343;50.868;4.700;2023-02-27T00:59:02;3.70;;;1.40;;
12554;SDS011;6343;50.868;4.700;2023-02-27T01:01:28;2.67;;;1.63;;
12554;SDS011;6343;50.868;4.700;2023-02-27T01:03:54;5.53;;;1.70;;
12554;SDS011;6343;50.868;4.700;2023-02-27T01:06:21;2.73;;;1.60;;
12554;SDS011;6343;50.868;4.700;2023-02-27T01:08:47;5.53;;;1.60;;
12554;SDS011;6343;50.868;4.700;2023-02-27T01:11:13;3.73;;;1.60;;
12554;SDS011;6343;50.868;4.700;2023-02-27T01:13:39;3.30;;;1.67;;
12554;SDS011;6343;50.868;4.700;2023-02-27T01:16:05;5.97;;;1.90;;
12554;SDS011;6343;50.868;4.700;2023-02-27T01:18:32;2.60;;;1.77;;
12554;SDS011;6343;50.868;4.700;2023-02-27T01:20:58;3.60;;;1.90;;
12554;SDS011;6343;50.868;4.700;2023-02-27T01:23:24;2.93;;;1.50;;
12554;SDS011;6343;50.868;4.700;2023-02-27T01:25:50;2.97;;;1.23;;
12554;SDS011;6343;50.868;4.700;2023-02-27T01:28:16;2.73;;;1.67;;
12554;SDS011;6343;50.868;4.700;2023-02-27T01:30:43;3.30;;;1.67;;
12554;SDS011;6343;50.868;4.700;2023-02-27T01:33:09;4.43;;;1.37;;
12554;SDS011;6343;50.868;4.700;2023-02-27T01:35:35;2.97;;;1.37;;
12554;SDS011;6343;50.868;4.700;2023-02-27T01:38:01;5.57;;;1.60;;
12554;SDS011;6343;50.868;4.700;2023-02-27T01:40:27;5.17;;;1.63;;
12554;SDS011;6343;50.868;4.700;2023-02-27T01:42:53;2.70;;;1.20;;
12554;SDS011;6343;50.868;4.700;2023-02-27T01:45:23;6.23;;;1.90;;
12554;SDS011;6343;50.868;4.700;2023-02-27T01:47:51;3.73;;;1.53;;
12554;SDS011;6343;50.868;4.700;2023-02-27T01:50:20;3.83;;;1.30;;
12554;SDS011;6343;50.868;4.700;2023-02-27T01:52:56;3.90;;;1.50;;
12554;SDS011;6343;50.868;4.700;2023-02-27T01:55:24;5.87;;;1.20;;
12554;SDS011;6343;50.868;4.700;2023-02-27T01:57:51;2.73;;;1.27;;
12554;SDS011;6343;50.868;4.700;2023-02-27T02:00:18;2.50;;;1.50;;
12554;SDS011;6343;50.868;4.700;2023-02-27T02:02:56;6.83;;;2.73;;
12554;SDS011;6343;50.868;4.700;2023-02-27T02:05:23;4.47;;;1.50;;
12554;SDS011;6343;50.868;4.700;2023-02-27T02:07:49;2.50;;;1.40;;
12554;SDS011;6343;50.868;4.700;2023-02-27T02:10:16;3.93;;;1.50;;
12554;SDS011;6343;50.868;4.700;2023-02-27T02:12:42;5.27;;;1.37;;
12554;SDS011;6343;50.868;4.700;2023-02-27T02:15:11;5.40;;;1.70;;
12554;SDS011;6343;50.868;4.700;2023-02-27T02:22:42;3.20;;;1.60;;
12554;SDS011;6343;50.868;4.700;2023-02-27T02:38:32;4.83;;;1.40;;
12554;SDS011;6343;50.868;4.700;2023-02-27T02:46:33;1.73;;;1.57;;
12554;SDS011;6343;50.868;4.700;2023-02-27T03:01:49;3.03;;;1.40;;
12554;SDS011;6343;50.868;4.700;2023-02-27T03:07:05;2.40;;;1.47;;
12554;SDS011;6343;50.868;4.700;2023-02-27T03:09:34;2.70;;;1.40;;
12554;SDS011;6343;50.868;4.700;2023-02-27T03:12:02;3.43;;;1.60;;
12554;SDS011;6343;50.868;4.700;2023-02-27T03:17:09;3.10;;;1.20;;
12554;SDS011;6343;50.868;4.700;2023-02-27T03:19:43;5.47;;;1.37;;
12554;SDS011;6343;50.868;4.700;2023-02-27T03:22:16;4.77;;;1.80;;
12554;SDS011;6343;50.868;4.700;2023-02-27T03:24:46;3.23;;;1.70;;
12554;SDS011;6343;50.868;4.700;2023-02-27T03:27:12;6.57;;;1.70;;
12554;SDS011;6343;50.868;4.700;2023-02-27T03:29:42;3.67;;;1.43;;
12554;SDS011;6343;50.868;4.700;2023-02-27T03:34:49;3.97;;;1.80;;
12554;SDS011;6343;50.868;4.700;2023-02-27T03:37:25;3.67;;;1.30;;
12554;SDS011;6343;50.868;4.700;2023-02-27T03:47:28;4.67;;;1.80;;
12554;SDS011;6343;50.868;4.700;2023-02-27T03:49:55;5.37;;;1.77;;
12554;SDS011;6343;50.868;4.700;2023-02-27T03:52:21;4.73;;;1.73;;
12554;SDS011;6343;50.868;4.700;2023-02-27T03:55:02;2.53;;;1.30;;
12554;SDS011;6343;50.868;4.700;2023-02-27T03:57:32;8.90;;;1.50;;
12554;SDS011;6343;50.868;4.700;2023-02-27T03:59:58;4.23;;;2.03;;
12554;SDS011;6343;50.868;4.700;2023-02-27T04:02:25;5.77;;;1.70;;
12554;SDS011;6343;50.868;4.700;2023-02-27T04:04:51;7.43;;;1.93;;
12554;SDS011;6343;50.868;4.700;2023-02-27T04:18:08;3.90;;;1.80;;
12554;SDS011;6343;50.868;4.700;2023-02-27T04:20:43;7.43;;;1.73;;
12554;SDS011;6343;50.868;4.700;2023-02-27T04:23:12;6.03;;;1.80;;
12554;SDS011;6343;50.868;4.700;2023-02-27T04:28:18;5.43;;;2.20;;
12554;SDS011;6343;50.868;4.700;2023-02-27T04:35:48;5.37;;;2.13;;
12554;SDS011;6343;50.868;4.700;2023-02-27T04:38:17;5.77;;;2.10;;
12554;SDS011;6343;50.868;4.700;2023-02-27T04:40:46;3.90;;;1.53;;
12554;SDS011;6343;50.868;4.700;2023-02-27T04:43:14;7.33;;;2.23;;
12554;SDS011;6343;50.868;4.700;2023-02-27T04:45:41;3.70;;;1.90;;
12554;SDS011;6343;50.868;4.700;2023-02-27T04:48:14;7.63;;;2.17;;
12554;SDS011;6343;50.868;4.700;2023-02-27T04:50:46;6.17;;;2.40;;
12554;SDS011;6343;50.868;4.700;2023-02-27T04:53:57;5.53;;;1.90;;
12554;SDS011;6343;50.868;4.700;2023-02-27T04:56:04;6.37;;;2.30;;
12554;SDS011;6343;50.868;4.700;2023-02-27T04:58:33;4.13;;;2.17;;
12554;SDS011;6343;50.868;4.700;2023-02-27T05:01:06;3.50;;;2.03;;
12554;SDS011;6343;50.868;4.700;2023-02-27T05:03:34;3.73;;;2.03;;
12554;SDS011;6343;50.868;4.700;2023-02-27T05:06:03;6.17;;;1.90;;
12554;SDS011;6343;50.868;4.700;2023-02-27T05:11:04;2.90;;;1.97;;
12554;SDS011;6343;50.868;4.700;2023-02-27T05:13:55;4.60;;;1.87;;
12554;SDS011;6343;50.868;4.700;2023-02-27T05:16:24;5.90;;;2.20;;
12554;SDS011;6343;50.868;4.700;2023-02-27T05:18:52;3.90;;;2.10;;
12554;SDS011;6343;50.868;4.700;2023-02-27T05:24:03;5.70;;;2.60;;
12554;SDS011;6343;50.868;4.700;2023-02-27T05:29:00;3.90;;;2.10;;
12554;SDS011;6343;50.868;4.700;2023-02-27T05:31:36;7.63;;;2.17;;
12554;SDS011;6343;50.868;4.700;2023-02-27T05:34:10;20.83;;;2.33;;
12554;SDS011;6343;50.868;4.700;2023-02-27T05:36:37;7.03;;;2.60;;
12554;SDS011;6343;50.868;4.700;2023-02-27T05:39:05;3.73;;;1.80;;
12554;SDS011;6343;50.868;4.700;2023-02-27T05:41:34;7.80;;;2.30;;
12554;SDS011;6343;50.868;4.700;2023-02-27T05:44:03;6.07;;;2.77;;
12554;SDS011;6343;50.868;4.700;2023-02-27T05:46:32;4.07;;;2.30;;
12554;SDS011;6343;50.868;4.700;2023-02-27T05:49:00;3.40;;;2.03;;
12554;SDS011;6343;50.868;4.700;2023-02-27T05:51:28;6.83;;;2.57;;
12554;SDS011;6343;50.868;4.700;2023-02-27T05:53:57;7.60;;;2.63;;
12554;SDS011;6343;50.868;4.700;2023-02-27T05:56:25;10.23;;;2.90;;
12554;SDS011;6343;50.868;4.700;2023-02-27T06:01:36;5.03;;;2.40;;
12554;SDS011;6343;50.868;4.700;2023-02-27T06:04:02;5.50;;;2.83;;
12554;SDS011;6343;50.868;4.700;2023-02-27T06:06:28;4.30;;;2.00;;
12554;SDS011;6343;50.868;4.700;2023-02-27T06:08:54;6.00;;;2.00;;
12554;SDS011;6343;50.868;4.700;2023-02-27T06:11:21;7.90;;;2.60;;
12554;SDS011;6343;50.868;4.700;2023-02-27T06:13:47;5.30;;;2.43;;
12554;SDS011;6343;50.868;4.700;2023-02-27T06:16:13;4.00;;;2.50;;
12554;SDS011;6343;50.868;4.700;2023-02-27T06:18:39;6.27;;;2.87;;
12554;SDS011;6343;50.868;4.700;2023-02-27T06:21:06;3.80;;;2.67;;
12554;SDS011;6343;50.868;4.700;2023-02-27T06:23:32;5.63;;;2.67;;
12554;SDS011;6343;50.868;4.700;2023-02-27T06:25:58;6.53;;;2.43;;
12554;SDS011;6343;50.868;4.700;2023-02-27T06:28:24;6.60;;;2.70;;
12554;SDS011;6343;50.868;4.700;2023-02-27T06:30:54;6.57;;;2.43;;
12554;SDS011;6343;50.868;4.700;2023-02-27T06:33:21;5.70;;;2.60;;
12554;SDS011;6343;50.868;4.700;2023-02-27T06:35:48;9.70;;;2.90;;
12554;SDS011;6343;50.868;4.700;2023-02-27T06:38:14;4.87;;;2.37;;
12554;SDS011;6343;50.868;4.700;2023-02-27T06:40:40;8.50;;;3.73;;
12554;SDS011;6343;50.868;4.700;2023-02-27T06:43:06;7.30;;;2.97;;
12554;SDS011;6343;50.868;4.700;2023-02-27T06:45:33;9.63;;;4.50;;
12554;SDS011;6343;50.868;4.700;2023-02-27T06:47:59;13.73;;;2.97;;
12554;SDS011;6343;50.868;4.700;2023-02-27T06:50:25;12.07;;;3.20;;
12554;SDS011;6343;50.868;4.700;2023-02-27T06:52:51;6.97;;;3.50;;
12554;SDS011;6343;50.868;4.700;2023-02-27T06:55:17;6.97;;;3.30;;
12554;SDS011;6343;50.868;4.700;2023-02-27T06:57:46;10.63;;;3.13;;
12554;SDS011;6343;50.868;4.700;2023-02-27T07:00:13;10.47;;;2.83;;
12554;SDS011;6343;50.868;4.700;2023-02-27T07:02:39;8.70;;;3.23;;
12554;SDS011;6343;50.868;4.700;2023-02-27T07:05:05;6.33;;;2.53;;
12554;SDS011;6343;50.868;4.700;2023-02-27T07:07:32;4.77;;;2.70;;
12554;SDS011;6343;50.868;4.700;2023-02-27T07:09:58;6.27;;;2.67;;
12554;SDS011;6343;50.868;4.700;2023-02-27T07:12:24;7.60;;;3.17;;
12554;SDS011;6343;50.868;4.700;2023-02-27T07:14:50;6.73;;;2.80;;
12554;SDS011;6343;50.868;4.700;2023-02-27T07:17:16;9.83;;;3.20;;
12554;SDS011;6343;50.868;4.700;2023-02-27T07:19:43;8.27;;;3.13;;
12554;SDS011;6343;50.868;4.700;2023-02-27T07:22:09;7.80;;;3.10;;
12554;SDS011;6343;50.868;4.700;2023-02-27T07:24:35;17.17;;;3.30;;
12554;SDS011;6343;50.868;4.700;2023-02-27T07:27:02;6.33;;;3.27;;
12554;SDS011;6343;50.868;4.700;2023-02-27T07:29:28;16.63;;;3.40;;
12554;SDS011;6343;50.868;4.700;2023-02-27T07:31:55;7.20;;;2.90;;
12554;SDS011;6343;50.868;4.700;2023-02-27T07:34:21;9.37;;;3.43;;
12554;SDS011;6343;50.868;4.700;2023-02-27T07:36:47;7.17;;;3.27;;
12554;SDS011;6343;50.868;4.700;2023-02-27T07:39:13;15.90;;;3.67;;
12554;SDS011;6343;50.868;4.700;2023-02-27T07:41:39;5.40;;;3.07;;
12554;SDS011;6343;50.868;4.700;2023-02-27T07:44:05;7.90;;;2.90;;
12554;SDS011;6343;50.868;4.700;2023-02-27T07:46:33;7.23;;;3.13;;
12554;SDS011;6343;50.868;4.700;2023-02-27T07:48:59;5.30;;;2.83;;
12554;SDS011;6343;50.868;4.700;2023-02-27T07:51:25;9.57;;;3.40;;
12554;SDS011;6343;50.868;4.700;2023-02-27T07:53:51;5.50;;;3.40;;
12554;SDS011;6343;50.868;4.700;2023-02-27T07:56:17;6.70;;;2.87;;
12554;SDS011;6343;50.868;4.700;2023-02-27T07:58:43;4.43;;;2.63;;
12554;SDS011;6343;50.868;4.700;2023-02-27T08:01:09;5.63;;;2.07;;
12554;SDS011;6343;50.868;4.700;2023-02-27T08:03:36;7.37;;;3.50;;
12554;SDS011;6343;50.868;4.700;2023-02-27T08:06:02;7.73;;;3.37;;
12554;SDS011;6343;50.868;4.700;2023-02-27T08:08:28;7.93;;;3.60;;
12554;SDS011;6343;50.868;4.700;2023-02-27T08:10:54;6.77;;;3.30;;
12554;SDS011;6343;50.868;4.700;2023-02-27T08:13:20;6.27;;;3.50;;
12554;SDS011;6343;50.868;4.700;2023-02-27T08:15:46;7.03;;;3.23;;
12554;SDS011;6343;50.868;4.700;2023-02-27T08:18:13;6.60;;;3.70;;
12554;SDS011;6343;50.868;4.700;2023-02-27T08:20:39;10.63;;;3.77;;
12554;SDS011;6343;50.868;4.700;2023-02-27T08:23:05;9.13;;;3.60;;
12554;SDS011;6343;50.868;4.700;2023-02-27T08:25:31;8.13;;;3.20;;
12554;SDS011;6343;50.868;4.700;2023-02-27T08:27:57;6.53;;;3.30;;
12554;SDS011;6343;50.868;4.700;2023-02-27T08:30:23;8.10;;;3.13;;
12554;SDS011;6343;50.868;4.700;2023-02-27T08:32:50;5.57;;;3.30;;
12554;SDS011;6343;50.868;4.700;2023-02-27T08:35:16;7.13;;;3.40;;
12554;SDS011;6343;50.868;4.700;2023-02-27T08:37:42;6.67;;;3.23;;
12554;SDS011;6343;50.868;4.700;2023-02-27T08:40:08;6.73;;;3.60;;
12554;SDS011;6343;50.868;4.700;2023-02-27T08:42:35;11.57;;;3.57;;
12554;SDS011;6343;50.868;4.700;2023-02-27T08:45:01;8.27;;;3.93;;
12554;SDS011;6343;50.868;4.700;2023-02-27T08:47:28;11.83;;;4.17;;
12554;SDS011;6343;50.868;4.700;2023-02-27T08:49:54;5.50;;;3.50;;
12554;SDS011;6343;50.868;4.700;2023-02-27T08:52:21;5.83;;;3.60;;
12554;SDS011;6343;50.868;4.700;2023-02-27T08:54:47;6.67;;;3.40;;
12554;SDS011;6343;50.868;4.700;2023-02-27T08:57:13;7.23;;;3.73;;
12554;SDS011;6343;50.868;4.700;2023-02-27T08:59:39;9.93;;;3.73;;
12554;SDS011;6343;50.868;4.700;2023-02-27T09:02:05;7.90;;;3.43;;
12554;SDS011;6343;50.868;4.700;2023-02-27T09:04:31;6.30;;;3.67;;
12554;SDS011;6343;50.868;4.700;2023-02-27T09:06:57;6.80;;;3.57;;
12554;SDS011;6343;50.868;4.700;2023-02-27T09:09:24;6.10;;;3.10;;
12554;SDS011;6343;50.868;4.700;2023-02-27T09:11:50;6.27;;;3.20;;
12554;SDS011;6343;50.868;4.700;2023-02-27T09:14:16;6.50;;;3.10;;
12554;SDS011;6343;50.868;4.700;2023-02-27T09:16:43;13.07;;;3.87;;
12554;SDS011;6343;50.868;4.700;2023-02-27T09:19:09;9.17;;;3.60;;
12554;SDS011;6343;50.868;4.700;2023-02-27T09:21:35;6.13;;;2.97;;
12554;SDS011;6343;50.868;4.700;2023-02-27T09:24:02;5.47;;;2.63;;
12554;SDS011;6343;50.868;4.700;2023-02-27T09:26:29;8.63;;;3.03;;
12554;SDS011;6343;50.868;4.700;2023-02-27T09:28:55;7.33;;;2.87;;
12554;SDS011;6343;50.868;4.700;2023-02-27T09:31:21;6.77;;;2.93;;
12554;SDS011;6343;50.868;4.700;2023-02-27T09:33:48;5.13;;;2.67;;
12554;SDS011;6343;50.868;4.700;2023-02-27T09:36:14;8.00;;;2.90;;
12554;SDS011;6343;50.868;4.700;2023-02-27T09:38:40;4.40;;;3.00;;
12554;SDS011;6343;50.868;4.700;2023-02-27T09:41:06;4.13;;;2.60;;
12554;SDS011;6343;50.868;4.700;2023-02-27T09:43:46;4.10;;;2.50;;
12554;SDS011;6343;50.868;4.700;2023-02-27T09:46:18;4.93;;;2.57;;
12554;SDS011;6343;50.868;4.700;2023-02-27T09:48:46;3.87;;;2.30;;
12554;SDS011;6343;50.868;4.700;2023-02-27T09:51:15;4.73;;;2.17;;
12554;SDS011;6343;50.868;4.700;2023-02-27T09:53:42;5.10;;;2.27;;
12554;SDS011;6343;50.868;4.700;2023-02-27T09:56:19;4.57;;;2.00;;
12554;SDS011;6343;50.868;4.700;2023-02-27T10:01:19;5.57;;;2.10;;
12554;SDS011;6343;50.868;4.700;2023-02-27T10:11:39;4.53;;;1.93;;
12554;SDS011;6343;50.868;4.700;2023-02-27T10:16:36;6.07;;;1.97;;
12554;SDS011;6343;50.868;4.700;2023-02-27T10:19:06;3.53;;;1.93;;
12554;SDS011;6343;50.868;4.700;2023-02-27T10:21:45;3.47;;;2.07;;
12554;SDS011;6343;50.868;4.700;2023-02-27T10:24:18;3.80;;;1.97;;
12554;SDS011;6343;50.868;4.700;2023-02-27T10:26:48;5.10;;;2.00;;
12554;SDS011;6343;50.868;4.700;2023-02-27T10:31:51;3.80;;;1.97;;
12554;SDS011;6343;50.868;4.700;2023-02-27T10:34:19;4.27;;;2.03;;
12554;SDS011;6343;50.868;4.700;2023-02-27T10:36:46;3.90;;;1.70;;
12554;SDS011;6343;50.868;4.700;2023-02-27T10:39:14;5.90;;;1.93;;
12554;SDS011;6343;50.868;4.700;2023-02-27T10:41:41;4.73;;;1.80;;
12554;SDS011;6343;50.868;4.700;2023-02-27T10:44:08;5.93;;;2.57;;
12554;SDS011;6343;50.868;4.700;2023-02-27T10:46:35;6.50;;;1.90;;
12554;SDS011;6343;50.868;4.700;2023-02-27T10:49:10;2.77;;;1.70;;
12554;SDS011;6343;50.868;4.700;2023-02-27T10:51:37;3.33;;;1.43;;
12554;SDS011;6343;50.868;4.700;2023-02-27T10:54:20;7.23;;;2.07;;
12554;SDS011;6343;50.868;4.700;2023-02-27T10:56:48;5.60;;;1.80;;
12554;SDS011;6343;50.868;4.700;2023-02-27T10:59:17;4.10;;;1.77;;
12554;SDS011;6343;50.868;4.700;2023-02-27T11:01:51;5.47;;;1.50;;
12554;SDS011;6343;50.868;4.700;2023-02-27T11:04:25;3.90;;;1.90;;
12554;SDS011;6343;50.868;4.700;2023-02-27T11:06:52;2.70;;;2.03;;
12554;SDS011;6343;50.868;4.700;2023-02-27T11:11:48;4.33;;;2.10;;
12554;SDS011;6343;50.868;4.700;2023-02-27T11:14:21;3.17;;;1.40;;
12554;SDS011;6343;50.868;4.700;2023-02-27T11:16:53;3.53;;;1.63;;
12554;SDS011;6343;50.868;4.700;2023-02-27T11:21:58;4.07;;;1.70;;
12554;SDS011;6343;50.868;4.700;2023-02-27T11:24:25;3.00;;;1.73;;
12554;SDS011;6343;50.868;4.700;2023-02-27T11:26:54;3.20;;;1.90;;
12554;SDS011;6343;50.868;4.700;2023-02-27T11:29:20;8.53;;;1.77;;
12554;SDS011;6343;50.868;4.700;2023-02-27T11:34:34;2.77;;;1.80;;
12554;SDS011;6343;50.868;4.700;2023-02-27T11:37:17;5.70;;;1.93;;
12554;SDS011;6343;50.868;4.700;2023-02-27T11:39:50;5.47;;;2.20;;
12554;SDS011;6343;50.868;4.700;2023-02-27T11:42:21;3.43;;;2.10;;
12554;SDS011;6343;50.868;4.700;2023-02-27T11:44:56;8.10;;;2.00;;
12554;SDS011;6343;50.868;4.700;2023-02-27T11:47:24;7.00;;;2.60;;
12554;SDS011;6343;50.868;4.700;2023-02-27T11:50:06;5.30;;;2.63;;
12554;SDS011;6343;50.868;4.700;2023-02-27T11:52:48;3.47;;;2.37;;
12554;SDS011;6343;50.868;4.700;2023-02-27T11:55:16;3.27;;;2.23;;
12554;SDS011;6343;50.868;4.700;2023-02-27T11:57:46;5.33;;;2.30;;
12554;SDS011;6343;50.868;4.700;2023-02-27T12:00:18;6.63;;;2.87;;
12554;SDS011;6343;50.868;4.700;2023-02-27T12:02:56;3.87;;;2.43;;
12554;SDS011;6343;50.868;4.700;2023-02-27T12:05:28;3.33;;;2.70;;
12554;SDS011;6343;50.868;4.700;2023-02-27T12:07:57;3.47;;;2.50;;
12554;SDS011;6343;50.868;4.700;2023-02-27T12:10:29;5.77;;;2.63;;
12554;SDS011;6343;50.868;4.700;2023-02-27T12:13:04;6.90;;;2.47;;
12554;SDS011;6343;50.868;4.700;2023-02-27T12:28:34;4.93;;;2.17;;
12554;SDS011;6343;50.868;4.700;2023-02-27T12:34:03;5.67;;;2.07;;
12554;SDS011;6343;50.868;4.700;2023-02-27T12:36:33;5.43;;;2.67;;
12554;SDS011;6343;50.868;4.700;2023-02-27T12:38:59;5.77;;;2.80;;
12554;SDS011;6343;50.868;4.700;2023-02-27T12:44:16;4.77;;;2.70;;
12554;SDS011;6343;50.868;4.700;2023-02-27T12:54:09;3.60;;;2.47;;
12554;SDS011;6343;50.868;4.700;2023-02-27T12:56:51;3.97;;;2.37;;
12554;SDS011;6343;50.868;4.700;2023-02-27T13:01:52;8.00;;;2.50;;
12554;SDS011;6343;50.868;4.700;2023-02-27T13:04:26;5.40;;;2.33;;
12554;SDS011;6343;50.868;4.700;2023-02-27T13:06:57;6.53;;;2.70;;
12554;SDS011;6343;50.868;4.700;2023-02-27T13:17:02;2.80;;;2.00;;
12554;SDS011;6343;50.868;4.700;2023-02-27T13:19:36;7.07;;;2.23;;
12554;SDS011;6343;50.868;4.700;2023-02-27T13:25:10;6.13;;;2.70;;
12554;SDS011;6343;50.868;4.700;2023-02-27T13:27:40;8.40;;;2.77;;
12554;SDS011;6343;50.868;4.700;2023-02-27T13:30:11;4.40;;;2.00;;
12554;SDS011;6343;50.868;4.700;2023-02-27T13:37:55;10.60;;;2.20;;
12554;SDS011;6343;50.868;4.700;2023-02-27T13:40:40;2.40;;;1.80;;
12554;SDS011;6343;50.868;4.700;2023-02-27T13:48:46;4.10;;;1.77;;
12554;SDS011;6343;50.868;4.700;2023-02-27T13:54:14;7.53;;;1.70;;
12554;SDS011;6343;50.868;4.700;2023-02-27T13:56:43;3.10;;;1.50;;
12554;SDS011;6343;50.868;4.700;2023-02-27T14:01:52;4.03;;;1.90;;
12554;SDS011;6343;50.868;4.700;2023-02-27T14:04:19;2.93;;;1.40;;
12554;SDS011;6343;50.868;4.700;2023-02-27T14:06:45;5.80;;;1.87;;
12554;SDS011;6343;50.868;4.700;2023-02-27T14:09:12;3.97;;;1.20;;
12554;SDS011;6343;50.868;4.700;2023-02-27T14:11:49;9.30;;;1.83;;
12554;SDS011;6343;50.868;4.700;2023-02-27T14:17:03;2.43;;;1.33;;
12554;SDS011;6343;50.868;4.700;2023-02-27T14:22:00;2.53;;;1.50;;
12554;SDS011;6343;50.868;4.700;2023-02-27T14:24:31;2.40;;;1.40;;
12554;SDS011;6343;50.868;4.700;2023-02-27T14:27:00;4.17;;;1.40;;
12554;SDS011;6343;50.868;4.700;2023-02-27T14:29:28;3.23;;;1.70;;
12554;SDS011;6343;50.868;4.700;2023-02-27T14:31:58;5.47;;;1.20;;
12554;SDS011;6343;50.868;4.700;2023-02-27T14:34:25;2.63;;;1.47;;
12554;SDS011;6343;50.868;4.700;2023-02-27T14:36:52;9.73;;;1.60;;
12554;SDS011;6343;50.868;4.700;2023-02-27T14:39:24;3.13;;;1.37;;
12554;SDS011;6343;50.868;4.700;2023-02-27T14:44:24;4.07;;;1.50;;
12554;SDS011;6343;50.868;4.700;2023-02-27T14:46:52;7.57;;;1.60;;
12554;SDS011;6343;50.868;4.700;2023-02-27T14:49:20;4.60;;;1.30;;
12554;SDS011;6343;50.868;4.700;2023-02-27T14:51:47;1.67;;;1.40;;
12554;SDS011;6343;50.868;4.700;2023-02-27T14:54:15;3.07;;;1.40;;
12554;SDS011;6343;50.868;4.700;2023-02-27T14:56:52;3.23;;;1.20;;
12554;SDS011;6343;50.868;4.700;2023-02-27T14:59:25;2.10;;;1.30;;
12554;SDS011;6343;50.868;4.700;2023-02-27T15:01:52;4.80;;;1.40;;
12554;SDS011;6343;50.868;4.700;2023-02-27T15:04:20;4.70;;;1.77;;
12554;SDS011;6343;50.868;4.700;2023-02-27T15:06:47;6.97;;;1.50;;
12554;SDS011;6343;50.868;4.700;2023-02-27T15:09:22;3.57;;;1.43;;
12554;SDS011;6343;50.868;4.700;2023-02-27T15:11:52;3.60;;;1.43;;
12554;SDS011;6343;50.868;4.700;2023-02-27T15:14:20;7.00;;;1.60;;
12554;SDS011;6343;50.868;4.700;2023-02-27T15:16:46;5.90;;;1.40;;
12554;SDS011;6343;50.868;4.700;2023-02-27T15:19:17;7.50;;;1.70;;
12554;SDS011;6343;50.868;4.700;2023-02-27T15:21:47;3.33;;;1.60;;
12554;SDS011;6343;50.868;4.700;2023-02-27T15:24:21;2.87;;;1.80;;
12554;SDS011;6343;50.868;4.700;2023-02-27T15:27:07;2.90;;;1.63;;
12554;SDS011;6343;50.868;4.700;2023-02-27T15:32:05;4.90;;;2.30;;
12554;SDS011;6343;50.868;4.700;2023-02-27T15:34:31;3.27;;;1.90;;
12554;SDS011;6343;50.868;4.700;2023-02-27T15:36:59;8.53;;;2.10;;
12554;SDS011;6343;50.868;4.700;2023-02-27T15:39:34;4.90;;;1.90;;
12554;SDS011;6343;50.868;4.700;2023-02-27T15:42:03;2.83;;;1.80;;
12554;SDS011;6343;50.868;4.700;2023-02-27T15:44:39;4.70;;;1.30;;
12554;SDS011;6343;50.868;4.700;2023-02-27T15:47:06;2.17;;;1.50;;
12554;SDS011;6343;50.868;4.700;2023-02-27T15:49:33;4.30;;;1.93;;
12554;SDS011;6343;50.868;4.700;2023-02-27T15:52:10;3.90;;;1.77;;
12554;SDS011;6343;50.868;4.700;2023-02-27T15:54:41;7.47;;;2.20;;
12554;SDS011;6343;50.868;4.700;2023-02-27T15:57:11;7.40;;;1.70;;
12554;SDS011;6343;50.868;4.700;2023-02-27T15:59:39;3.00;;;1.70;;
12554;SDS011;6343;50.868;4.700;2023-02-27T16:02:10;6.63;;;1.90;;
12554;SDS011;6343;50.868;4.700;2023-02-27T16:04:38;5.00;;;1.93;;
12554;SDS011;6343;50.868;4.700;2023-02-27T16:07:05;3.40;;;1.90;;
12554;SDS011;6343;50.868;4.700;2023-02-27T16:09:35;7.67;;;2.20;;
12554;SDS011;6343;50.868;4.700;2023-02-27T16:12:15;4.97;;;1.57;;
12554;SDS011;6343;50.868;4.700;2023-02-27T16:14:45;3.07;;;1.50;;
12554;SDS011;6343;50.868;4.700;2023-02-27T16:17:30;4.67;;;2.07;;
12554;SDS011;6343;50.868;4.700;2023-02-27T16:20:01;6.70;;;1.90;;
12554;SDS011;6343;50.868;4.700;2023-02-27T16:22:28;8.20;;;1.70;;
12554;SDS011;6343;50.868;4.700;2023-02-27T16:25:05;4.87;;;2.90;;
12554;SDS011;6343;50.868;4.700;2023-02-27T16:27:31;5.73;;;2.40;;
12554;SDS011;6343;50.868;4.700;2023-02-27T16:29:57;10.20;;;2.10;;
12554;SDS011;6343;50.868;4.700;2023-02-27T16:35:25;5.93;;;1.83;;
12554;SDS011;6343;50.868;4.700;2023-02-27T16:37:45;3.03;;;1.63;;
12554;SDS011;6343;50.868;4.700;2023-02-27T16:40:16;3.53;;;1.47;;
12554;SDS011;6343;50.868;4.700;2023-02-27T16:42:43;7.03;;;2.20;;
12554;SDS011;6343;50.868;4.700;2023-02-27T16:45:19;3.80;;;1.67;;
12554;SDS011;6343;50.868;4.700;2023-02-27T16:47:50;3.80;;;1.70;;
12554;SDS011;6343;50.868;4.700;2023-02-27T16:52:42;2.87;;;1.70;;
12554;SDS011;6343;50.868;4.700;2023-02-27T16:55:08;4.60;;;1.80;;
12554;SDS011;6343;50.868;4.700;2023-02-27T16:57:35;5.27;;;1.90;;
12554;SDS011;6343;50.868;4.700;2023-02-27T17:00:02;3.63;;;1.70;;
12554;SDS011;6343;50.868;4.700;2023-02-27T17:02:31;3.53;;;2.10;;
12554;SDS011;6343;50.868;4.700;2023-02-27T17:04:58;3.53;;;2.00;;
12554;SDS011;6343;50.868;4.700;2023-02-27T17:07:24;3.03;;;1.60;;
12554;SDS011;6343;50.868;4.700;2023-02-27T17:09:50;9.47;;;2.50;;
12554;SDS011;6343;50.868;4.700;2023-02-27T17:12:16;5.90;;;2.03;;
12554;SDS011;6343;50.868;4.700;2023-02-27T17:14:42;2.90;;;1.70;;
12554;SDS011;6343;50.868;4.700;2023-02-27T17:17:08;4.87;;;1.97;;
12554;SDS011;6343;50.868;4.700;2023-02-27T17:19:35;4.53;;;2.10;;
12554;SDS011;6343;50.868;4.700;2023-02-27T17:22:01;5.10;;;1.83;;
12554;SDS011;6343;50.868;4.700;2023-02-27T17:24:27;1.97;;;1.50;;
12554;SDS011;6343;50.868;4.700;2023-02-27T17:26:54;3.50;;;1.90;;
12554;SDS011;6343;50.868;4.700;2023-02-27T17:29:20;2.63;;;1.60;;
12554;SDS011;6343;50.868;4.700;2023-02-27T17:31:48;2.67;;;2.00;;
12554;SDS011;6343;50.868;4.700;2023-02-27T17:34:14;2.53;;;1.90;;
12554;SDS011;6343;50.868;4.700;2023-02-27T17:36:41;2.87;;;1.87;;
12554;SDS011;6343;50.868;4.700;2023-02-27T17:39:09;4.57;;;2.20;;
12554;SDS011;6343;50.868;4.700;2023-02-27T17:41:35;5.03;;;2.07;;
12554;SDS011;6343;50.868;4.700;2023-02-27T17:44:01;3.30;;;1.70;;
12554;SDS011;6343;50.868;4.700;2023-02-27T17:46:28;2.67;;;1.70;;
12554;SDS011;6343;50.868;4.700;2023-02-27T17:48:54;4.20;;;1.80;;
12554;SDS011;6343;50.868;4.700;2023-02-27T17:51:24;5.00;;;1.87;;
12554;SDS011;6343;50.868;4.700;2023-02-27T17:53:50;3.63;;;1.70;;
12554;SDS011;6343;50.868;4.700;2023-02-27T17:56:17;3.77;;;1.70;;
12554;SDS011;6343;50.868;4.700;2023-02-27T17:58:43;3.37;;;1.73;;
12554;SDS011;6343;50.868;4.700;2023-02-27T18:01:12;2.13;;;1.70;;
12554;SDS011;6343;50.868;4.700;2023-02-27T18:03:39;4.83;;;2.20;;